createdAt,value
2022-11-24T00:00:56.484Z,5.13
2022-11-24T00:03:24.853Z,5.60
2022-11-24T00:05:53.289Z,6.27
2022-11-24T00:08:21.648Z,5.23
2022-11-24T00:10:50.058Z,5.13
2022-11-24T00:13:18.392Z,3.83
2022-11-24T00:15:48.128Z,5.90
2022-11-24T00:18:16.498Z,4.63
2022-11-24T00:20:44.876Z,3.70
2022-11-24T00:23:13.208Z,4.97
2022-11-24T00:25:41.537Z,5.00
2022-11-24T00:28:10.041Z,4.60
2022-11-24T00:30:38.492Z,2.30
2022-11-24T00:33:08.218Z,3.50
2022-11-24T00:35:36.608Z,3.50
2022-11-24T00:38:04.962Z,2.27
2022-11-24T00:40:35.144Z,3.73
2022-11-24T00:43:03.689Z,3.57
2022-11-24T00:45:32.054Z,2.80
2022-11-24T00:48:00.441Z,3.90
2022-11-24T00:50:30.154Z,5.57
2022-11-24T00:52:58.491Z,3.93
2022-11-24T00:55:26.870Z,4.93
2022-11-24T00:57:55.239Z,4.50
2022-11-24T01:00:23.632Z,4.63
2022-11-24T01:02:52.202Z,4.00
2022-11-24T01:05:20.587Z,5.63
2022-11-24T01:07:50.369Z,4.63
2022-11-24T01:10:18.855Z,4.53
2022-11-24T01:12:47.815Z,4.80
2022-11-24T01:15:16.083Z,6.10
2022-11-24T01:17:44.461Z,5.57
2022-11-24T01:20:13.350Z,6.57
2022-11-24T01:22:42.338Z,5.20
2022-11-24T01:25:13.419Z,4.57
2022-11-24T01:27:41.731Z,5.17
2022-11-24T01:30:11.056Z,6.67
2022-11-24T01:32:39.431Z,2.90
2022-11-24T01:35:08.443Z,4.63
2022-11-24T01:37:36.786Z,4.93
2022-11-24T01:40:05.796Z,3.53
2022-11-24T01:42:41.705Z,4.60
2022-11-24T01:45:43.294Z,3.83
2022-11-24T01:48:15.228Z,3.80
2022-11-24T01:50:44.310Z,5.33
2022-11-24T01:53:14.520Z,4.67
2022-11-24T01:55:42.984Z,3.53
2022-11-24T01:58:15.108Z,4.27
2022-11-24T02:00:45.467Z,4.90
2022-11-24T02:03:14.723Z,3.53
2022-11-24T02:05:45.045Z,4.37
2022-11-24T02:08:17.036Z,4.93
2022-11-24T02:10:46.293Z,3.07
2022-11-24T02:13:16.338Z,6.10
2022-11-24T02:15:44.799Z,5.17
2022-11-24T02:18:13.165Z,2.53
2022-11-24T02:20:41.509Z,3.27
2022-11-24T02:23:13.051Z,2.53
2022-11-24T02:25:45.364Z,2.20
2022-11-24T02:28:17.557Z,3.90
2022-11-24T02:30:46.244Z,4.00
2022-11-24T02:33:15.210Z,3.13
2022-11-24T02:35:43.686Z,3.77
2022-11-24T02:38:14.304Z,5.60
2022-11-24T02:40:43.745Z,4.03
2022-11-24T02:43:14.218Z,2.73
2022-11-24T02:45:43.954Z,1.73
2022-11-24T02:48:12.384Z,3.87
2022-11-24T02:50:40.729Z,3.33
2022-11-24T02:53:09.082Z,1.23
2022-11-24T02:55:37.370Z,2.50
2022-11-24T02:58:05.731Z,3.17
2022-11-24T03:00:34.095Z,2.83
2022-11-24T03:03:03.846Z,3.10
2022-11-24T03:05:32.302Z,3.07
2022-11-24T03:08:00.766Z,3.23
2022-11-24T03:10:29.611Z,3.10
2022-11-24T03:12:58.291Z,3.27
2022-11-24T03:15:26.637Z,2.00
2022-11-24T03:17:56.632Z,3.10
2022-11-24T03:20:26.989Z,2.70
2022-11-24T03:22:55.492Z,2.63
2022-11-24T03:25:23.889Z,2.50
2022-11-24T03:27:52.786Z,2.30
2022-11-24T03:30:21.194Z,1.60
2022-11-24T03:32:49.753Z,1.23
2022-11-24T03:35:18.079Z,2.77
2022-11-24T03:37:47.848Z,2.40
2022-11-24T03:40:17.886Z,2.97
2022-11-24T03:42:46.219Z,3.93
2022-11-24T03:45:45.509Z,1.53
2022-11-24T03:48:03.313Z,1.50
2022-11-24T03:50:31.713Z,1.80
2022-11-24T03:53:01.498Z,1.10
2022-11-24T03:55:29.861Z,1.40
2022-11-24T03:57:58.192Z,2.53
2022-11-24T04:00:26.555Z,1.60
2022-11-24T04:02:55.007Z,1.60
2022-11-24T04:05:25.199Z,3.27
2022-11-24T04:07:57.105Z,2.83
2022-11-24T04:10:26.928Z,2.17
2022-11-24T04:12:54.260Z,4.00
2022-11-24T04:15:23.093Z,2.80
2022-11-24T04:17:51.860Z,1.90
2022-11-24T04:20:20.396Z,1.50
2022-11-24T04:22:48.791Z,2.97
2022-11-24T04:25:17.800Z,3.40
2022-11-24T04:27:47.605Z,2.83
2022-11-24T04:30:15.992Z,2.77
2022-11-24T04:32:44.426Z,2.77
2022-11-24T04:35:12.982Z,4.10
2022-11-24T04:37:41.673Z,4.63
2022-11-24T04:40:11.351Z,2.87
2022-11-24T04:42:39.817Z,2.67
2022-11-24T04:45:10.398Z,1.13
2022-11-24T04:47:38.864Z,1.23
2022-11-24T04:50:08.169Z,1.40
2022-11-24T04:52:36.512Z,2.63
2022-11-24T04:55:04.908Z,2.07
2022-11-24T04:57:33.259Z,1.07
2022-11-24T05:00:01.647Z,1.03
2022-11-24T05:02:31.384Z,0.83
2022-11-24T05:04:59.748Z,0.87
2022-11-24T05:07:28.145Z,1.17
2022-11-24T05:10:14.132Z,2.43
2022-11-24T05:12:47.031Z,1.47
2022-11-24T05:15:18.725Z,1.30
2022-11-24T05:17:48.547Z,1.67
2022-11-24T05:20:17.002Z,1.80
2022-11-24T05:22:45.649Z,1.80
2022-11-24T05:25:14.296Z,2.07
2022-11-24T05:27:42.732Z,2.03
2022-11-24T05:30:11.370Z,6.63
2022-11-24T05:32:40.286Z,1.67
2022-11-24T05:35:11.046Z,0.83
2022-11-24T05:37:39.574Z,1.10
2022-11-24T05:40:08.654Z,1.53
2022-11-24T05:42:47.349Z,3.13
2022-11-24T05:45:17.623Z,3.00
2022-11-24T05:47:45.989Z,1.03
2022-11-24T05:50:16.407Z,2.47
2022-11-24T05:52:44.783Z,0.60
2022-11-24T05:55:14.680Z,3.43
2022-11-24T05:57:43.397Z,8.40
2022-11-24T06:00:12.791Z,0.40
2022-11-24T06:02:41.507Z,1.17
2022-11-24T06:05:10.296Z,1.73
2022-11-24T06:07:40.069Z,0.40
2022-11-24T06:10:08.624Z,1.33
2022-11-24T06:12:37.293Z,0.80
2022-11-24T06:15:06.015Z,0.70
2022-11-24T06:17:34.410Z,0.50
2022-11-24T06:20:02.759Z,0.60
2022-11-24T06:22:31.104Z,1.03
2022-11-24T06:25:00.949Z,1.57
2022-11-24T06:27:31.211Z,0.50
2022-11-24T06:30:03.912Z,0.90
2022-11-24T06:32:32.255Z,0.50
2022-11-24T06:35:00.626Z,0.97
2022-11-24T06:37:29.096Z,0.67
2022-11-24T06:39:57.442Z,2.10
2022-11-24T06:42:27.226Z,0.60
2022-11-24T06:44:55.788Z,0.63
2022-11-24T06:47:24.170Z,1.57
2022-11-24T06:49:52.531Z,1.30
2022-11-24T06:52:20.878Z,3.23
2022-11-24T06:54:49.260Z,2.47
2022-11-24T06:57:17.558Z,3.00
2022-11-24T06:59:47.299Z,2.73
2022-11-24T07:02:15.687Z,1.40
2022-11-24T07:04:44.057Z,2.30
2022-11-24T07:07:12.739Z,1.40
2022-11-24T07:09:41.163Z,1.87
2022-11-24T07:12:09.569Z,1.30
2022-11-24T07:14:38.025Z,1.37
2022-11-24T07:17:07.920Z,1.63
2022-11-24T07:19:36.290Z,2.10
2022-11-24T07:22:04.935Z,2.10
2022-11-24T07:24:33.649Z,0.87
2022-11-24T07:27:02.203Z,2.33
2022-11-24T07:29:30.601Z,2.07
2022-11-24T07:32:05.054Z,2.40
2022-11-24T07:34:35.619Z,2.20
2022-11-24T07:37:04.297Z,1.50
2022-11-24T07:39:32.757Z,0.90
2022-11-24T07:42:01.149Z,1.27
2022-11-24T07:44:29.616Z,1.83
2022-11-24T07:46:58.183Z,1.67
2022-11-24T07:49:26.579Z,0.80
2022-11-24T07:51:56.355Z,1.83
2022-11-24T07:54:24.837Z,1.93
2022-11-24T07:56:53.270Z,1.17
2022-11-24T07:59:21.771Z,1.17
2022-11-24T08:01:50.257Z,2.70
2022-11-24T08:04:18.619Z,2.50
2022-11-24T08:06:47.672Z,2.33
2022-11-24T08:09:17.639Z,2.30
2022-11-24T08:11:46.281Z,3.20
2022-11-24T08:14:14.738Z,2.60
2022-11-24T08:16:43.085Z,3.00
2022-11-24T08:19:12.151Z,3.10
2022-11-24T08:21:40.586Z,3.43
2022-11-24T08:24:09.816Z,2.80
2022-11-24T08:26:39.663Z,3.93
2022-11-24T08:29:08.192Z,2.93
2022-11-24T08:31:36.929Z,4.13
2022-11-24T08:34:05.702Z,2.83
2022-11-24T08:36:34.739Z,1.67
2022-11-24T08:39:03.205Z,3.63
2022-11-24T08:41:32.283Z,2.97
2022-11-24T08:44:02.134Z,3.47
2022-11-24T08:46:32.863Z,3.60
2022-11-24T08:49:01.568Z,3.00
2022-11-24T08:51:33.036Z,3.37
2022-11-24T08:54:02.767Z,3.60
2022-11-24T08:56:31.757Z,3.13
2022-11-24T08:59:00.997Z,3.97
2022-11-24T09:01:31.249Z,1.50
2022-11-24T09:04:01.031Z,4.27
2022-11-24T09:06:30.998Z,5.00
2022-11-24T09:09:00.100Z,4.23
2022-11-24T09:11:28.805Z,2.50
2022-11-24T09:13:57.261Z,3.27
2022-11-24T09:16:27.027Z,2.70
2022-11-24T09:18:59.403Z,3.67
2022-11-24T09:21:27.944Z,3.87
2022-11-24T09:23:57.443Z,2.00
2022-11-24T09:26:26.967Z,4.03
2022-11-24T09:28:56.123Z,4.10
2022-11-24T09:31:25.598Z,2.10
2022-11-24T09:33:54.530Z,0.80
2022-11-24T09:36:24.890Z,2.77
2022-11-24T09:38:53.366Z,0.50
2022-11-24T09:41:29.219Z,0.60
2022-11-24T09:44:01.532Z,0.50
2022-11-24T09:46:32.253Z,1.20
2022-11-24T09:49:03.020Z,1.37
2022-11-24T09:51:36.982Z,1.60
2022-11-24T09:54:08.394Z,0.60
2022-11-24T09:56:38.717Z,2.07
2022-11-24T09:59:08.345Z,1.17
2022-11-24T10:01:38.028Z,2.40
2022-11-24T10:04:13.845Z,2.13
2022-11-24T10:06:47.656Z,1.50
2022-11-24T10:09:24.163Z,0.90
2022-11-24T10:11:58.569Z,1.40
2022-11-24T10:14:48.166Z,1.03
2022-11-24T10:17:23.933Z,1.33
2022-11-24T10:19:58.398Z,1.33
2022-11-24T10:22:33.939Z,2.60
2022-11-24T10:25:19.501Z,0.60
2022-11-24T10:27:50.597Z,4.10
2022-11-24T10:30:21.218Z,1.97
2022-11-24T10:32:50.580Z,2.57
2022-11-24T10:35:21.693Z,1.90
2022-11-24T10:37:57.794Z,1.30
2022-11-24T10:43:21.695Z,5.27
2022-11-24T10:45:50.503Z,2.90
2022-11-24T10:48:20.896Z,3.57
2022-11-24T10:50:49.371Z,2.80
2022-11-24T10:53:23.234Z,4.03
2022-11-24T10:56:02.031Z,3.63
2022-11-24T10:58:37.067Z,4.57
2022-11-24T11:01:22.818Z,4.43
2022-11-24T11:03:52.875Z,4.60
2022-11-24T11:06:28.482Z,3.10
2022-11-24T11:09:13.662Z,5.17
2022-11-24T11:11:43.739Z,5.33
2022-11-24T11:14:13.233Z,5.30
2022-11-24T11:16:42.485Z,3.77
2022-11-24T11:19:47.997Z,4.07
2022-11-24T11:22:16.488Z,4.40
2022-11-24T11:24:47.135Z,2.40
2022-11-24T11:27:19.060Z,4.60
2022-11-24T11:35:29.519Z,4.43
2022-11-24T11:38:01.950Z,3.03
2022-11-24T11:40:33.221Z,1.77
2022-11-24T11:43:04.659Z,2.33
2022-11-24T11:45:36.712Z,3.07
2022-11-24T11:48:16.291Z,3.37
2022-11-24T11:51:21.244Z,3.97
2022-11-24T11:53:44.652Z,3.13
2022-11-24T11:56:23.507Z,3.77
2022-11-24T11:59:10.060Z,3.47
2022-11-24T12:01:56.499Z,3.53
2022-11-24T12:04:28.645Z,3.77
2022-11-24T12:07:02.953Z,3.07
2022-11-24T12:09:36.644Z,4.30
2022-11-24T12:12:16.052Z,3.40
2022-11-24T12:14:54.546Z,3.00
2022-11-24T12:17:27.608Z,3.37
2022-11-24T12:20:04.196Z,3.37
2022-11-24T12:22:37.486Z,1.27
2022-11-24T12:25:17.170Z,2.50
2022-11-24T12:27:51.578Z,2.10
2022-11-24T12:30:20.871Z,2.83
2022-11-24T12:33:00.938Z,3.47
2022-11-24T12:35:33.303Z,3.57
2022-11-24T12:38:07.407Z,5.40
2022-11-24T12:40:46.402Z,4.97
2022-11-24T12:43:21.260Z,5.20
2022-11-24T12:45:53.391Z,5.57
2022-11-24T12:48:28.150Z,4.27
2022-11-24T12:50:57.453Z,3.20
2022-11-24T12:53:27.887Z,5.07
2022-11-24T12:55:58.712Z,4.33
2022-11-24T12:58:31.582Z,3.73
2022-11-24T13:01:04.881Z,5.53
2022-11-24T13:03:38.522Z,4.63
2022-11-24T13:06:12.562Z,4.70
2022-11-24T13:08:41.080Z,6.23
2022-11-24T13:11:34.175Z,3.97
2022-11-24T13:14:07.209Z,3.63
2022-11-24T13:16:44.355Z,4.67
2022-11-24T13:19:26.221Z,3.57
2022-11-24T13:22:05.603Z,4.47
2022-11-24T13:24:36.556Z,3.97
2022-11-24T13:27:36.103Z,4.50
2022-11-24T13:30:26.358Z,4.13
2022-11-24T13:33:02.369Z,4.70
2022-11-24T13:35:31.462Z,3.23
2022-11-24T13:38:00.209Z,4.37
2022-11-24T13:41:12.931Z,2.80
2022-11-24T13:43:36.163Z,5.03
2022-11-24T13:46:06.322Z,6.23
2022-11-24T13:48:53.598Z,4.10
2022-11-24T13:51:25.634Z,3.90
2022-11-24T13:53:56.800Z,3.87
2022-11-24T13:56:34.328Z,3.13
2022-11-24T13:59:04.945Z,5.13
2022-11-24T14:01:36.274Z,3.10
2022-11-24T14:04:33.053Z,5.07
2022-11-24T14:07:08.353Z,3.17
2022-11-24T14:09:39.062Z,5.50
2022-11-24T14:12:13.524Z,3.53
2022-11-24T14:14:41.913Z,3.33
2022-11-24T14:17:16.826Z,5.70
2022-11-24T14:19:46.232Z,4.90
2022-11-24T14:22:17.472Z,3.67
2022-11-24T14:24:47.284Z,2.27
2022-11-24T14:27:17.355Z,4.73
2022-11-24T14:29:55.992Z,4.77
2022-11-24T14:32:25.816Z,3.53
2022-11-24T14:35:04.481Z,2.93
2022-11-24T14:37:33.218Z,4.60
2022-11-24T14:40:01.648Z,4.97
2022-11-24T14:42:29.990Z,4.73
2022-11-24T14:45:00.171Z,4.07
2022-11-24T14:47:32.515Z,2.77
2022-11-24T14:50:09.461Z,3.70
2022-11-24T14:52:38.346Z,3.20
2022-11-24T14:55:22.512Z,4.13
2022-11-24T14:57:53.831Z,2.73
2022-11-24T15:00:28.608Z,2.67
2022-11-24T15:03:09.915Z,4.20
2022-11-24T15:05:56.213Z,4.83
2022-11-24T15:08:25.304Z,4.33
2022-11-24T15:10:58.133Z,4.50
2022-11-24T15:13:27.052Z,4.50
2022-11-24T15:16:02.022Z,3.17
2022-11-24T15:18:37.009Z,5.23
2022-11-24T15:21:05.749Z,4.47
2022-11-24T15:23:35.166Z,2.97
2022-11-24T15:26:18.491Z,4.77
2022-11-24T15:28:47.888Z,3.73
2022-11-24T15:31:18.380Z,3.30
2022-11-24T15:33:48.326Z,4.37
2022-11-24T15:36:17.046Z,3.93
2022-11-24T15:38:45.773Z,5.73
2022-11-24T15:41:18.317Z,4.93
2022-11-24T15:43:50.926Z,3.63
2022-11-24T15:46:19.366Z,4.63
2022-11-24T15:48:49.187Z,3.10
2022-11-24T15:51:17.760Z,3.10
2022-11-24T15:53:47.238Z,4.70
2022-11-24T15:56:16.795Z,3.60
2022-11-24T15:58:45.263Z,4.60
2022-11-24T16:01:13.753Z,5.17
2022-11-24T16:03:47.305Z,5.03
2022-11-24T16:06:24.236Z,3.37
2022-11-24T16:08:53.310Z,5.60
2022-11-24T16:11:21.802Z,5.07
2022-11-24T16:13:53.349Z,4.40
2022-11-24T16:16:23.130Z,5.40
2022-11-24T16:18:51.665Z,3.73
2022-11-24T16:21:21.470Z,5.50
2022-11-24T16:23:49.854Z,5.47
2022-11-24T16:26:18.198Z,5.90
2022-11-24T16:28:46.607Z,3.93
2022-11-24T16:31:16.253Z,5.40
2022-11-24T16:33:45.306Z,5.33
2022-11-24T16:36:13.669Z,5.73
2022-11-24T16:38:43.382Z,6.10
2022-11-24T16:41:11.744Z,4.07
2022-11-24T16:43:40.320Z,3.87
2022-11-24T16:46:18.078Z,5.17
2022-11-24T16:48:46.488Z,4.13
2022-11-24T16:51:15.389Z,3.10
2022-11-24T16:53:45.748Z,3.83
2022-11-24T16:56:14.758Z,4.77
2022-11-24T16:58:43.623Z,4.93
2022-11-24T17:01:12.785Z,4.37
2022-11-24T17:03:43.972Z,4.60
2022-11-24T17:06:13.037Z,3.43
2022-11-24T17:08:42.052Z,4.43
2022-11-24T17:11:13.168Z,4.93
2022-11-24T17:13:41.684Z,4.93
2022-11-24T17:16:11.619Z,4.50
2022-11-24T17:18:40.703Z,4.13
2022-11-24T17:21:10.195Z,5.97
2022-11-24T17:23:39.102Z,4.60
2022-11-24T17:26:08.544Z,2.80
2022-11-24T17:28:38.623Z,5.33
2022-11-24T17:31:10.429Z,4.63
2022-11-24T17:33:38.782Z,5.87
2022-11-24T17:36:07.773Z,6.03
2022-11-24T17:38:36.357Z,4.40
2022-11-24T17:41:05.683Z,4.53
2022-11-24T17:43:34.169Z,5.90
2022-11-24T17:46:04.722Z,6.20
2022-11-24T17:48:33.683Z,5.03
2022-11-24T17:51:03.274Z,4.73
2022-11-24T17:53:34.031Z,5.13
2022-11-24T17:56:02.594Z,5.03
2022-11-24T17:58:31.253Z,4.83
2022-11-24T18:01:00.185Z,5.50
2022-11-24T18:03:31.696Z,4.50
2022-11-24T18:06:00.313Z,5.17
2022-11-24T18:08:28.639Z,5.23
2022-11-24T18:11:04.138Z,5.10
2022-11-24T18:13:55.290Z,2.13
2022-11-24T18:16:21.017Z,5.67
2022-11-24T18:18:51.216Z,5.87
2022-11-24T18:21:19.669Z,4.13
2022-11-24T18:23:47.971Z,4.67
2022-11-24T18:26:17.163Z,4.70
2022-11-24T18:28:45.928Z,5.00
2022-11-24T18:31:15.043Z,6.37
2022-11-24T18:33:44.551Z,5.47
2022-11-24T18:36:15.815Z,4.53
2022-11-24T18:38:44.369Z,4.93
2022-11-24T18:41:13.965Z,4.37
2022-11-24T18:43:43.376Z,5.23
2022-11-24T18:46:13.472Z,5.10
2022-11-24T18:48:42.168Z,4.50
2022-11-24T18:51:14.484Z,4.30
2022-11-24T18:53:44.700Z,4.97
2022-11-24T18:56:14.282Z,6.63
2022-11-24T18:58:42.764Z,5.13
2022-11-24T19:01:12.419Z,4.97
2022-11-24T19:03:47.850Z,6.37
2022-11-24T19:06:18.333Z,5.80
2022-11-24T19:08:48.481Z,5.57
2022-11-24T19:11:18.532Z,6.20
2022-11-24T19:13:47.698Z,5.50
2022-11-24T19:16:16.629Z,4.70
2022-11-24T19:18:48.931Z,6.57
2022-11-24T19:21:22.057Z,6.60
2022-11-24T19:23:52.107Z,5.83
2022-11-24T19:26:21.012Z,5.97
2022-11-24T19:28:49.550Z,5.10
2022-11-24T19:31:18.556Z,6.33
2022-11-24T19:33:46.894Z,5.37
2022-11-24T19:36:15.951Z,6.10
2022-11-24T19:38:44.787Z,6.40
2022-11-24T19:41:15.084Z,5.37
2022-11-24T19:43:43.647Z,6.47
2022-11-24T19:46:12.743Z,7.67
2022-11-24T19:48:42.942Z,6.17
2022-11-24T19:51:13.424Z,5.60
2022-11-24T19:53:41.954Z,5.50
2022-11-24T19:56:11.294Z,5.87
2022-11-24T19:58:41.386Z,4.67
2022-11-24T20:01:10.069Z,5.97
2022-11-24T20:03:38.997Z,5.17
2022-11-24T20:06:08.519Z,5.70
2022-11-24T20:08:37.419Z,5.53
2022-11-24T20:11:06.157Z,4.93
2022-11-24T20:13:35.849Z,7.50
2022-11-24T20:16:06.218Z,5.93
2022-11-24T20:18:40.437Z,3.47
2022-11-24T20:21:11.041Z,6.30
2022-11-24T20:23:39.475Z,5.70
2022-11-24T20:26:09.578Z,5.70
2022-11-24T20:28:37.907Z,4.80
2022-11-24T20:31:08.601Z,5.30
2022-11-24T20:33:37.350Z,6.30
2022-11-24T20:36:07.424Z,6.47
2022-11-24T20:38:35.776Z,6.10
2022-11-24T20:41:09.065Z,4.03
2022-11-24T20:43:37.789Z,5.27
2022-11-24T20:46:08.532Z,6.53
2022-11-24T20:48:37.610Z,6.43
2022-11-24T20:51:06.019Z,3.80
2022-11-24T20:53:34.600Z,4.10
2022-11-24T20:56:06.064Z,4.37
2022-11-24T20:58:35.054Z,5.63
2022-11-24T21:01:09.616Z,5.77
2022-11-24T21:03:42.834Z,6.83
2022-11-24T21:06:12.192Z,5.43
2022-11-24T21:08:41.415Z,4.57
2022-11-24T21:11:13.659Z,5.37
2022-11-24T21:13:42.918Z,7.37
2022-11-24T21:16:16.426Z,5.43
2022-11-24T21:18:45.569Z,5.93
2022-11-24T21:21:14.160Z,4.13
2022-11-24T21:23:42.751Z,4.77
2022-11-24T21:26:16.353Z,5.47
2022-11-24T21:28:46.144Z,5.60
2022-11-24T21:31:16.880Z,5.43
2022-11-24T21:33:45.980Z,5.33
2022-11-24T21:36:15.446Z,4.03
2022-11-24T21:38:43.867Z,5.80
2022-11-24T21:41:14.023Z,5.70
2022-11-24T21:43:42.502Z,6.67
2022-11-24T21:46:11.929Z,5.00
2022-11-24T21:48:42.265Z,5.23
2022-11-24T21:51:12.908Z,5.90
2022-11-24T21:53:41.578Z,4.90
2022-11-24T21:56:12.893Z,4.17
2022-11-24T21:58:46.687Z,5.30
2022-11-24T22:01:15.504Z,5.67
2022-11-24T22:03:45.772Z,5.63
2022-11-24T22:06:14.215Z,5.60
2022-11-24T22:08:42.625Z,5.77
2022-11-24T22:11:13.262Z,6.43
2022-11-24T22:13:41.912Z,4.87
2022-11-24T22:16:11.370Z,2.67
2022-11-24T22:18:41.089Z,5.50
2022-11-24T22:21:13.590Z,5.83
2022-11-24T22:23:41.965Z,6.60
2022-11-24T22:26:13.395Z,6.67
2022-11-24T22:28:42.155Z,3.57
2022-11-24T22:31:11.731Z,4.67
2022-11-24T22:33:40.439Z,5.00
2022-11-24T22:36:09.473Z,5.70
2022-11-24T22:38:39.502Z,5.60
2022-11-24T22:41:09.070Z,5.53
2022-11-24T22:43:38.500Z,5.20
2022-11-24T22:46:07.154Z,3.87
2022-11-24T22:48:35.579Z,5.33
2022-11-24T22:51:04.834Z,3.47
2022-11-24T22:53:33.271Z,5.67
2022-11-24T22:56:06.963Z,4.27
2022-11-24T22:58:35.774Z,3.50
2022-11-24T23:01:07.674Z,4.20
2022-11-24T23:03:36.611Z,5.23
2022-11-24T23:06:05.496Z,5.13
2022-11-24T23:08:34.616Z,4.83
2022-11-24T23:11:03.433Z,4.80
2022-11-24T23:13:33.119Z,4.43
2022-11-24T23:16:02.459Z,4.77
2022-11-24T23:18:31.235Z,5.00
2022-11-24T23:21:05.490Z,5.27
2022-11-24T23:23:33.851Z,5.10
2022-11-24T23:26:02.606Z,6.10
2022-11-24T23:28:31.283Z,4.83
2022-11-24T23:31:04.099Z,4.90
2022-11-24T23:33:32.752Z,5.13
2022-11-24T23:36:02.298Z,6.40
2022-11-24T23:38:32.728Z,5.77
2022-11-24T23:41:03.948Z,5.10
2022-11-24T23:43:32.300Z,6.63
2022-11-24T23:46:04.486Z,6.73
2022-11-24T23:48:33.294Z,5.37
2022-11-24T23:51:05.450Z,5.87
2022-11-24T23:53:33.865Z,5.77
2022-11-24T23:56:02.561Z,6.03
2022-11-24T23:58:30.974Z,5.77
